createdAt,value
2018-05-15T00:00:40.770Z,12.90
2018-05-15T00:03:06.557Z,16.17
2018-05-15T00:05:32.350Z,14.57
2018-05-15T00:07:58.158Z,16.73
2018-05-15T00:10:23.958Z,20.00
2018-05-15T00:12:49.738Z,14.77
2018-05-15T00:15:15.554Z,25.00
2018-05-15T00:17:41.339Z,15.80
2018-05-15T00:20:07.133Z,13.10
2018-05-15T00:22:32.933Z,17.43
2018-05-15T00:24:58.758Z,15.30
2018-05-15T00:27:24.540Z,15.07
2018-05-15T00:29:50.313Z,23.33
2018-05-15T00:32:16.131Z,17.93
2018-05-15T00:34:41.923Z,16.80
2018-05-15T00:37:07.730Z,15.87
2018-05-15T00:39:33.525Z,17.83
2018-05-15T00:41:59.425Z,22.67
2018-05-15T00:44:25.218Z,21.53
2018-05-15T00:46:51.058Z,17.20
2018-05-15T00:49:16.850Z,19.37
2018-05-15T00:51:42.627Z,16.60
2018-05-15T00:54:08.642Z,12.80
2018-05-15T00:56:34.453Z,14.10
2018-05-15T00:59:00.237Z,15.03
2018-05-15T01:01:26.398Z,14.80
2018-05-15T01:03:52.178Z,21.50
2018-05-15T01:06:17.973Z,17.20
2018-05-15T01:08:43.768Z,14.77
2018-05-15T01:11:09.562Z,15.90
2018-05-15T01:13:35.350Z,21.63
2018-05-15T01:16:01.133Z,22.60
2018-05-15T01:18:26.923Z,20.50
2018-05-15T01:20:52.701Z,20.30
2018-05-15T01:23:18.582Z,16.03
2018-05-15T01:25:44.366Z,22.40
2018-05-15T01:28:10.186Z,16.37
2018-05-15T01:30:35.969Z,18.23
2018-05-15T01:33:01.770Z,16.33
2018-05-15T01:35:27.586Z,24.63
2018-05-15T01:37:53.378Z,20.50
2018-05-15T01:40:19.162Z,19.40
2018-05-15T01:42:44.966Z,26.23
2018-05-15T01:45:10.743Z,20.83
2018-05-15T01:47:36.536Z,24.10
2018-05-15T01:50:02.349Z,20.20
2018-05-15T01:52:28.133Z,19.67
2018-05-15T01:54:53.928Z,19.30
2018-05-15T01:57:19.720Z,19.03
2018-05-15T01:59:45.506Z,19.27
2018-05-15T02:02:11.301Z,18.17
2018-05-15T02:04:37.105Z,20.90
2018-05-15T02:07:02.938Z,19.67
2018-05-15T02:09:28.717Z,23.20
2018-05-15T02:11:54.501Z,23.13
2018-05-15T02:14:20.289Z,24.20
2018-05-15T02:16:46.071Z,21.30
2018-05-15T02:19:11.867Z,18.90
2018-05-15T02:21:37.644Z,18.83
2018-05-15T02:24:03.453Z,19.90
2018-05-15T02:26:29.225Z,26.53
2018-05-15T02:28:55.024Z,20.13
2018-05-15T02:31:20.825Z,29.00
2018-05-15T02:33:46.605Z,26.43
2018-05-15T02:36:12.398Z,22.17
2018-05-15T02:38:45.326Z,21.80
2018-05-15T02:41:11.140Z,23.70
2018-05-15T02:43:36.927Z,21.97
2018-05-15T02:46:02.757Z,24.43
2018-05-15T02:48:28.812Z,23.93
2018-05-15T02:50:54.601Z,22.13
2018-05-15T02:53:20.375Z,28.13
2018-05-15T02:55:46.190Z,23.27
2018-05-15T02:58:11.972Z,26.50
2018-05-15T03:00:37.824Z,22.53
2018-05-15T03:03:03.605Z,27.97
2018-05-15T03:05:29.404Z,22.33
2018-05-15T03:07:55.180Z,31.70
2018-05-15T03:10:21.006Z,28.70
2018-05-15T03:12:46.798Z,27.53
2018-05-15T03:15:12.583Z,27.87
2018-05-15T03:17:38.402Z,24.70
2018-05-15T03:20:04.267Z,24.30
2018-05-15T03:22:30.014Z,23.83
2018-05-15T03:24:55.804Z,30.90
2018-05-15T03:27:21.584Z,28.37
2018-05-15T03:29:47.369Z,26.70
2018-05-15T03:32:13.182Z,27.30
2018-05-15T03:34:38.962Z,26.77
2018-05-15T03:37:04.754Z,28.57
2018-05-15T03:39:30.562Z,29.30
2018-05-15T03:41:56.347Z,32.97
2018-05-15T03:44:22.166Z,30.50
2018-05-15T03:46:47.947Z,34.03
2018-05-15T03:49:13.737Z,31.43
2018-05-15T03:51:39.525Z,31.90
2018-05-15T03:54:05.302Z,33.37
2018-05-15T03:56:31.114Z,28.53
2018-05-15T03:58:56.900Z,44.20
2018-05-15T04:01:35.394Z,33.10
2018-05-15T04:04:13.623Z,35.93
2018-05-15T04:06:51.907Z,32.33
2018-05-15T04:09:17.722Z,29.57
2018-05-15T04:11:43.647Z,43.50
2018-05-15T04:14:09.664Z,112.07
2018-05-15T04:16:35.451Z,107.93
2018-05-15T04:19:01.241Z,71.43
2018-05-15T04:21:27.086Z,47.93
2018-05-15T04:23:52.861Z,53.90
2018-05-15T04:26:18.655Z,52.57
2018-05-15T04:28:44.521Z,51.60
2018-05-15T04:31:10.266Z,47.20
2018-05-15T04:33:36.053Z,38.83
2018-05-15T04:36:01.848Z,39.33
2018-05-15T04:38:27.638Z,37.73
2018-05-15T04:40:53.452Z,36.13
2018-05-15T04:43:19.367Z,39.50
2018-05-15T04:45:45.082Z,40.20
2018-05-15T04:48:10.871Z,36.70
2018-05-15T04:50:36.657Z,43.93
2018-05-15T04:53:02.478Z,37.00
2018-05-15T04:55:28.261Z,38.57
2018-05-15T04:57:54.287Z,40.07
2018-05-15T05:00:20.105Z,40.07
2018-05-15T05:02:45.877Z,37.83
2018-05-15T05:05:11.666Z,40.27
2018-05-15T05:07:37.494Z,35.13
2018-05-15T05:10:03.298Z,35.97
2018-05-15T05:12:29.073Z,31.07
2018-05-15T05:14:54.885Z,33.07
2018-05-15T05:17:20.682Z,38.70
2018-05-15T05:19:46.476Z,33.07
2018-05-15T05:22:12.303Z,33.40
2018-05-15T05:24:38.083Z,36.03
2018-05-15T05:27:03.961Z,33.40
2018-05-15T05:29:29.721Z,35.30
2018-05-15T05:31:55.514Z,33.97
2018-05-15T05:34:21.292Z,43.13
2018-05-15T05:36:47.087Z,32.73
2018-05-15T05:39:12.873Z,36.70
2018-05-15T05:41:38.693Z,40.40
2018-05-15T05:44:04.480Z,33.70
2018-05-15T05:46:30.345Z,33.90
2018-05-15T05:48:56.091Z,37.20
2018-05-15T05:51:21.907Z,40.17
2018-05-15T05:53:47.698Z,39.30
2018-05-15T05:56:13.513Z,32.43
2018-05-15T05:58:39.556Z,35.73
2018-05-15T06:01:05.386Z,32.80
2018-05-15T06:03:31.166Z,31.50
2018-05-15T06:05:56.959Z,32.70
2018-05-15T06:08:22.941Z,33.50
2018-05-15T06:10:48.735Z,35.53
2018-05-15T06:13:14.509Z,30.03
2018-05-15T06:15:40.317Z,34.87
2018-05-15T06:18:06.101Z,27.60
2018-05-15T06:20:31.944Z,34.77
2018-05-15T06:22:57.952Z,32.60
2018-05-15T06:25:23.749Z,29.93
2018-05-15T06:27:49.543Z,37.07
2018-05-15T06:30:15.361Z,29.40
2018-05-15T06:32:41.156Z,31.90
2018-05-15T06:35:06.994Z,35.00
2018-05-15T06:37:32.813Z,48.53
2018-05-15T06:39:58.585Z,23.00
2018-05-15T06:42:24.387Z,35.63
2018-05-15T06:44:50.281Z,28.10
2018-05-15T06:47:16.126Z,34.33
2018-05-15T06:49:42.018Z,23.87
2018-05-15T06:52:08.351Z,27.00
2018-05-15T06:54:34.135Z,28.93
2018-05-15T06:57:00.067Z,25.30
2018-05-15T06:59:25.896Z,28.97
2018-05-15T07:01:51.753Z,25.57
2018-05-15T07:04:17.748Z,26.07
2018-05-15T07:06:43.561Z,23.73
2018-05-15T07:09:09.453Z,25.70
2018-05-15T07:11:35.256Z,29.80
2018-05-15T07:14:01.248Z,28.60
2018-05-15T07:16:27.019Z,22.07
2018-05-15T07:18:52.805Z,25.27
2018-05-15T07:21:18.910Z,21.10
2018-05-15T07:23:44.693Z,23.70
2018-05-15T07:26:10.651Z,21.13
2018-05-15T07:28:36.456Z,39.73
2018-05-15T07:31:02.459Z,18.00
2018-05-15T07:33:28.247Z,18.27
2018-05-15T07:35:54.055Z,20.67
2018-05-15T07:38:19.899Z,15.23
2018-05-15T07:40:45.692Z,21.97
2018-05-15T07:43:11.582Z,25.40
2018-05-15T07:45:37.713Z,23.87
2018-05-15T07:48:03.805Z,13.20
2018-05-15T07:50:29.594Z,16.10
2018-05-15T07:52:57.344Z,21.20
2018-05-15T07:55:23.231Z,18.83
2018-05-15T07:57:49.068Z,14.37
2018-05-15T08:00:14.871Z,16.73
2018-05-15T08:02:40.692Z,13.60
2018-05-15T08:05:06.469Z,13.87
2018-05-15T08:07:32.574Z,13.90
2018-05-15T08:09:58.390Z,12.20
2018-05-15T08:12:24.268Z,11.00
2018-05-15T08:14:50.049Z,11.63
2018-05-15T08:17:15.860Z,14.73
2018-05-15T08:19:41.646Z,16.80
2018-05-15T08:22:07.454Z,20.10
2018-05-15T08:24:33.409Z,12.93
2018-05-15T08:26:59.197Z,20.83
2018-05-15T08:29:24.993Z,11.50
2018-05-15T08:31:51.047Z,17.33
2018-05-15T08:34:16.846Z,27.27
2018-05-15T08:36:42.664Z,21.23
2018-05-15T08:39:08.466Z,12.87
2018-05-15T08:41:34.266Z,15.73
2018-05-15T08:44:00.079Z,11.83
2018-05-15T08:46:25.893Z,17.33
2018-05-15T08:48:51.666Z,15.63
2018-05-15T08:51:17.478Z,16.90
2018-05-15T08:53:43.325Z,11.13
2018-05-15T08:56:09.130Z,8.73
2018-05-15T08:58:34.941Z,8.73
2018-05-15T09:01:00.745Z,13.70
2018-05-15T09:03:26.564Z,22.03
2018-05-15T09:05:52.366Z,11.70
2018-05-15T09:08:18.348Z,8.27
2018-05-15T09:10:44.133Z,13.80
2018-05-15T09:13:09.925Z,12.73
2018-05-15T09:15:35.748Z,9.33
2018-05-15T09:18:01.679Z,13.07
2018-05-15T09:20:27.497Z,16.67
2018-05-15T09:22:53.306Z,9.13
2018-05-15T09:25:19.102Z,24.03
2018-05-15T09:27:44.917Z,20.77
2018-05-15T09:30:10.693Z,27.30
2018-05-15T09:32:36.474Z,13.30
2018-05-15T09:35:02.553Z,27.47
2018-05-15T09:37:29.192Z,9.30
2018-05-15T09:39:55.101Z,14.23
2018-05-15T09:42:20.913Z,25.50
2018-05-15T09:44:46.743Z,11.07
2018-05-15T09:47:12.586Z,17.53
2018-05-15T09:49:38.751Z,8.87
2018-05-15T09:52:04.542Z,7.60
2018-05-15T09:54:30.333Z,10.03
2018-05-15T09:56:56.139Z,8.70
2018-05-15T09:59:21.950Z,8.40
2018-05-15T10:01:48.601Z,13.27
2018-05-15T10:04:14.984Z,8.50
2018-05-15T10:06:42.221Z,7.07
2018-05-15T10:09:08.540Z,6.90
2018-05-15T10:11:34.854Z,10.63
2018-05-15T10:14:01.347Z,6.60
2018-05-15T10:16:27.575Z,10.50
2018-05-15T10:18:54.287Z,8.50
2018-05-15T10:21:20.657Z,7.63
2018-05-15T10:23:46.818Z,11.97
2018-05-15T10:26:13.019Z,12.30
2018-05-15T10:28:38.893Z,7.33
2018-05-15T10:31:04.715Z,10.60
2018-05-15T10:33:30.510Z,6.70
2018-05-15T10:35:56.352Z,7.63
2018-05-15T10:38:22.140Z,6.07
2018-05-15T10:40:47.939Z,6.53
2018-05-15T10:43:13.740Z,6.93
2018-05-15T10:45:39.538Z,6.93
2018-05-15T10:48:05.350Z,11.73
2018-05-15T10:50:31.153Z,10.07
2018-05-15T10:52:56.941Z,9.00
2018-05-15T10:55:22.726Z,5.90
2018-05-15T10:57:49.709Z,12.60
2018-05-15T11:00:16.615Z,10.67
2018-05-15T11:02:42.546Z,9.50
2018-05-15T11:05:08.370Z,8.13
2018-05-15T11:07:34.187Z,17.10
2018-05-15T11:09:59.989Z,5.30
2018-05-15T11:12:25.802Z,7.50
2018-05-15T11:14:51.596Z,5.30
2018-05-15T11:17:17.370Z,6.40
2018-05-15T11:19:55.665Z,9.83
2018-05-15T11:22:33.790Z,6.13
2018-05-15T11:24:59.596Z,5.90
2018-05-15T11:27:25.393Z,5.83
2018-05-15T11:29:51.189Z,5.50
2018-05-15T11:32:16.993Z,6.47
2018-05-15T11:34:42.823Z,6.90
2018-05-15T11:37:08.617Z,5.50
2018-05-15T11:39:34.407Z,6.13
2018-05-15T11:42:00.213Z,8.83
2018-05-15T11:44:26.002Z,5.60
2018-05-15T11:46:51.802Z,6.57
2018-05-15T11:49:18.628Z,5.50
2018-05-15T11:51:43.986Z,7.03
2018-05-15T11:54:09.245Z,5.73
2018-05-15T11:56:35.107Z,7.60
2018-05-15T11:59:00.836Z,6.63
2018-05-15T12:01:26.654Z,5.03
2018-05-15T12:03:52.658Z,9.60
2018-05-15T12:06:18.381Z,6.00
2018-05-15T12:08:44.179Z,9.37
2018-05-15T12:11:09.999Z,8.70
2018-05-15T12:13:35.813Z,5.90
2018-05-15T12:16:01.692Z,5.23
2018-05-15T12:18:27.419Z,8.37
2018-05-15T12:20:53.213Z,7.40
2018-05-15T12:23:19.265Z,6.30
2018-05-15T12:25:45.065Z,7.00
2018-05-15T12:28:10.866Z,9.17
2018-05-15T12:30:36.798Z,5.47
2018-05-15T12:33:02.596Z,7.33
2018-05-15T12:35:28.385Z,5.03
2018-05-15T12:37:54.185Z,7.80
2018-05-15T12:40:19.974Z,6.97
2018-05-15T12:42:45.757Z,11.80
2018-05-15T12:45:11.570Z,4.80
2018-05-15T12:47:37.450Z,5.77
2018-05-15T12:50:03.251Z,12.27
2018-05-15T12:52:29.033Z,8.33
2018-05-15T12:54:54.827Z,6.43
2018-05-15T12:57:20.962Z,5.60
2018-05-15T12:59:46.746Z,6.17
2018-05-15T13:02:12.529Z,6.77
2018-05-15T13:04:38.346Z,6.67
2018-05-15T13:07:04.138Z,8.43
2018-05-15T13:09:29.945Z,6.00
2018-05-15T13:11:55.737Z,5.23
2018-05-15T13:14:21.539Z,5.17
2018-05-15T13:16:47.354Z,11.70
2018-05-15T13:19:13.137Z,6.33
2018-05-15T13:21:38.933Z,9.47
2018-05-15T13:24:04.736Z,6.73
2018-05-15T13:26:30.514Z,8.07
2018-05-15T13:28:56.285Z,6.37
2018-05-15T13:31:22.077Z,7.13
2018-05-15T13:33:47.846Z,8.53
2018-05-15T13:36:13.621Z,9.83
2018-05-15T13:38:39.674Z,6.60
2018-05-15T13:41:05.471Z,6.77
2018-05-15T13:43:31.248Z,9.00
2018-05-15T13:45:57.044Z,7.97
2018-05-15T13:48:22.854Z,10.70
2018-05-15T13:50:48.641Z,4.83
2018-05-15T13:53:14.436Z,10.90
2018-05-15T13:55:40.251Z,6.77
2018-05-15T13:58:06.034Z,6.70
2018-05-15T14:00:31.821Z,5.30
2018-05-15T14:02:57.617Z,14.57
2018-05-15T14:05:23.406Z,4.70
2018-05-15T14:07:49.218Z,5.60
2018-05-15T14:10:15.014Z,6.83
2018-05-15T14:12:40.797Z,4.83
2018-05-15T14:15:06.944Z,12.07
2018-05-15T14:17:32.768Z,7.50
2018-05-15T14:19:58.554Z,4.73
2018-05-15T14:22:24.362Z,8.87
2018-05-15T14:24:50.189Z,4.83
2018-05-15T14:27:15.930Z,7.33
2018-05-15T14:29:41.734Z,8.33
2018-05-15T14:32:07.524Z,5.63
2018-05-15T14:34:33.308Z,4.37
2018-05-15T14:36:59.097Z,4.73
2018-05-15T14:39:24.892Z,5.90
2018-05-15T14:42:03.018Z,6.03
2018-05-15T14:44:28.809Z,5.00
2018-05-15T14:46:54.594Z,7.03
2018-05-15T14:49:20.404Z,8.10
2018-05-15T14:51:46.194Z,6.50
2018-05-15T14:54:11.987Z,7.50
2018-05-15T14:56:37.825Z,6.60
2018-05-15T14:59:03.605Z,6.17
2018-05-15T15:01:30.392Z,5.27
2018-05-15T15:03:56.201Z,6.67
2018-05-15T15:06:21.998Z,8.60
2018-05-15T15:08:47.838Z,5.30
2018-05-15T15:11:13.650Z,5.63
2018-05-15T15:13:39.613Z,8.53
2018-05-15T15:16:05.520Z,9.80
2018-05-15T15:18:31.396Z,13.73
2018-05-15T15:20:57.224Z,9.07
2018-05-15T15:23:23.006Z,7.73
2018-05-15T15:25:48.821Z,4.90
2018-05-15T15:28:14.607Z,5.43
2018-05-15T15:30:40.521Z,8.73
2018-05-15T15:33:06.329Z,5.83
2018-05-15T15:35:32.119Z,8.13
2018-05-15T15:37:57.917Z,6.30
2018-05-15T15:40:23.704Z,10.93
2018-05-15T15:42:49.697Z,6.07
2018-05-15T15:45:15.518Z,6.10
2018-05-15T15:47:41.530Z,5.97
2018-05-15T15:50:07.345Z,6.40
2018-05-15T15:52:33.664Z,8.20
2018-05-15T15:54:59.458Z,17.00
2018-05-15T15:57:25.233Z,10.03
2018-05-15T15:59:51.054Z,10.47
2018-05-15T16:02:16.850Z,9.87
2018-05-15T16:04:42.629Z,14.33
2018-05-15T16:07:08.416Z,21.00
2018-05-15T16:09:34.310Z,10.50
2018-05-15T16:12:00.497Z,16.70
2018-05-15T16:14:26.285Z,9.20
2018-05-15T16:16:52.613Z,41.20
2018-05-15T16:19:18.400Z,16.73
2018-05-15T16:21:44.252Z,7.53
2018-05-15T16:24:10.077Z,6.57
2018-05-15T16:26:35.901Z,6.00
2018-05-15T16:29:01.695Z,11.50
2018-05-15T16:31:27.532Z,15.23
2018-05-15T16:33:53.346Z,14.03
2018-05-15T16:36:19.434Z,11.90
2018-05-15T16:38:45.299Z,5.20
2018-05-15T16:41:11.085Z,14.67
2018-05-15T16:43:36.886Z,6.10
2018-05-15T16:46:02.849Z,7.50
2018-05-15T16:48:28.625Z,8.77
2018-05-15T16:50:54.560Z,11.10
2018-05-15T16:53:20.371Z,11.93
2018-05-15T16:55:46.153Z,11.80
2018-05-15T16:58:11.926Z,11.10
2018-05-15T17:00:39.782Z,13.97
2018-05-15T17:03:05.677Z,19.37
2018-05-15T17:05:31.482Z,6.73
2018-05-15T17:07:57.527Z,10.70
2018-05-15T17:10:23.293Z,12.80
2018-05-15T17:12:49.622Z,13.00
2018-05-15T17:15:15.418Z,10.53
2018-05-15T17:17:41.221Z,12.40
2018-05-15T17:20:07.334Z,9.67
2018-05-15T17:22:33.126Z,8.30
2018-05-15T17:24:59.039Z,14.23
2018-05-15T17:27:24.995Z,10.20
2018-05-15T17:29:50.793Z,6.20
2018-05-15T17:32:16.746Z,7.00
2018-05-15T17:34:42.553Z,8.67
2018-05-15T17:37:08.478Z,8.60
2018-05-15T17:39:34.288Z,12.07
2018-05-15T17:42:00.318Z,14.33
2018-05-15T17:44:26.105Z,15.17
2018-05-15T17:46:51.913Z,9.90
2018-05-15T17:49:17.817Z,9.40
2018-05-15T17:51:43.585Z,8.90
2018-05-15T17:54:09.385Z,8.93
2018-05-15T17:56:35.541Z,12.20
2018-05-15T17:59:01.357Z,10.50
2018-05-15T18:01:27.763Z,13.17
2018-05-15T18:03:53.655Z,7.07
2018-05-15T18:06:20.057Z,10.50
2018-05-15T18:08:46.839Z,8.87
2018-05-15T18:11:12.837Z,6.40
2018-05-15T18:13:38.658Z,7.17
2018-05-15T18:16:04.458Z,8.60
2018-05-15T18:18:30.258Z,6.43
2018-05-15T18:20:56.062Z,6.30
2018-05-15T18:23:21.882Z,8.53
2018-05-15T18:25:48.463Z,8.03
2018-05-15T18:28:14.325Z,11.63
2018-05-15T18:30:40.737Z,6.93
2018-05-15T18:33:06.649Z,11.33
2018-05-15T18:35:33.182Z,7.67
2018-05-15T18:37:58.988Z,11.43
2018-05-15T18:40:24.789Z,6.67
2018-05-15T18:42:50.620Z,8.10
2018-05-15T18:45:17.067Z,9.47
2018-05-15T18:47:42.954Z,11.77
2018-05-15T18:50:09.364Z,19.13
2018-05-15T18:52:35.230Z,6.97
2018-05-15T18:55:01.013Z,15.20
2018-05-15T18:57:27.716Z,6.20
2018-05-15T18:59:53.593Z,7.13
2018-05-15T19:02:19.429Z,7.20
2018-05-15T19:04:45.535Z,9.40
2018-05-15T19:07:11.346Z,10.37
2018-05-15T19:09:37.890Z,15.40
2018-05-15T19:12:03.697Z,8.73
2018-05-15T19:14:29.797Z,11.50
2018-05-15T19:16:55.614Z,8.30
2018-05-15T19:19:21.579Z,6.23
2018-05-15T19:21:48.148Z,6.17
2018-05-15T19:24:14.325Z,8.43
2018-05-15T19:26:40.620Z,9.63
2018-05-15T19:29:06.432Z,7.57
2018-05-15T19:31:36.379Z,19.67
2018-05-15T19:34:02.242Z,9.80
2018-05-15T19:36:31.647Z,7.90
2018-05-15T19:39:03.789Z,16.00
2018-05-15T19:41:29.765Z,13.43
2018-05-15T19:43:55.623Z,15.10
2018-05-15T19:46:21.958Z,6.77
2018-05-15T19:48:47.762Z,32.67
2018-05-15T19:51:13.905Z,16.43
2018-05-15T19:53:39.693Z,16.83
2018-05-15T19:56:05.632Z,18.50
2018-05-15T19:58:31.477Z,7.20
2018-05-15T20:00:57.269Z,8.50
2018-05-15T20:03:23.106Z,13.53
2018-05-15T20:05:48.905Z,6.43
2018-05-15T20:08:15.535Z,12.40
2018-05-15T20:10:41.334Z,12.03
2018-05-15T20:13:07.570Z,6.70
2018-05-15T20:15:33.415Z,9.13
2018-05-15T20:17:59.457Z,10.23
2018-05-15T20:20:25.258Z,8.03
2018-05-15T20:22:51.402Z,11.80
2018-05-15T20:25:17.253Z,7.10
2018-05-15T20:27:43.037Z,10.73
2018-05-15T20:30:08.829Z,7.63
2018-05-15T20:32:34.617Z,9.60
2018-05-15T20:35:01.059Z,12.00
2018-05-15T20:37:26.804Z,11.53
2018-05-15T20:39:52.955Z,6.93
2018-05-15T20:42:18.736Z,7.50
2018-05-15T20:44:44.791Z,8.20
2018-05-15T20:47:10.665Z,8.57
2018-05-15T20:49:36.446Z,14.27
2018-05-15T20:52:02.261Z,7.83
2018-05-15T20:54:28.057Z,16.47
2018-05-15T20:56:54.275Z,8.60
2018-05-15T20:59:20.073Z,14.37
2018-05-15T21:01:46.378Z,9.83
2018-05-15T21:04:12.165Z,9.13
2018-05-15T21:06:38.181Z,7.63
2018-05-15T21:09:04.008Z,8.77
2018-05-15T21:11:29.782Z,10.93
2018-05-15T21:13:55.564Z,10.43
2018-05-15T21:16:21.411Z,5.60
2018-05-15T21:18:47.499Z,8.17
2018-05-15T21:21:13.293Z,8.37
2018-05-15T21:23:39.269Z,6.50
2018-05-15T21:26:05.054Z,9.60
2018-05-15T21:28:30.841Z,6.60
2018-05-15T21:30:56.645Z,8.87
2018-05-15T21:33:22.430Z,6.03
2018-05-15T21:35:48.357Z,8.73
2018-05-15T21:38:14.149Z,9.67
2018-05-15T21:40:40.259Z,6.33
2018-05-15T21:43:06.046Z,7.60
2018-05-15T21:45:31.854Z,7.17
2018-05-15T21:47:57.640Z,6.63
2018-05-15T21:50:23.444Z,10.77
2018-05-15T21:52:49.498Z,9.60
2018-05-15T21:55:15.245Z,15.63
2018-05-15T21:57:41.029Z,7.10
2018-05-15T22:00:06.847Z,6.70
2018-05-15T22:02:32.634Z,8.30
2018-05-15T22:04:58.446Z,8.93
2018-05-15T22:07:24.224Z,10.03
2018-05-15T22:09:50.002Z,7.23
2018-05-15T22:12:28.227Z,7.60
2018-05-15T22:15:06.397Z,12.83
2018-05-15T22:17:44.723Z,9.23
2018-05-15T22:20:22.817Z,8.33
2018-05-15T22:22:48.461Z,8.83
2018-05-15T22:25:14.246Z,7.33
2018-05-15T22:27:40.062Z,14.47
2018-05-15T22:30:05.836Z,8.37
2018-05-15T22:32:31.613Z,7.60
2018-05-15T22:34:57.615Z,7.20
2018-05-15T22:37:23.397Z,7.43
2018-05-15T22:39:49.189Z,15.63
2018-05-15T22:42:14.989Z,9.63
2018-05-15T22:44:40.782Z,9.43
2018-05-15T22:47:06.874Z,9.03
2018-05-15T22:49:32.668Z,9.90
2018-05-15T22:51:58.457Z,10.00
2018-05-15T22:54:24.269Z,9.70
2018-05-15T22:56:50.041Z,9.50
2018-05-15T22:59:15.833Z,9.20
2018-05-15T23:01:41.618Z,14.07
2018-05-15T23:04:07.413Z,7.57
2018-05-15T23:06:33.223Z,11.73
2018-05-15T23:08:59.005Z,11.13
2018-05-15T23:11:24.938Z,8.80
2018-05-15T23:13:50.719Z,10.03
2018-05-15T23:16:16.504Z,6.63
2018-05-15T23:18:42.309Z,11.13
2018-05-15T23:21:08.090Z,10.10
2018-05-15T23:23:33.889Z,11.50
2018-05-15T23:25:59.704Z,12.63
2018-05-15T23:28:25.522Z,8.20
2018-05-15T23:30:51.296Z,14.13
2018-05-15T23:33:17.458Z,8.40
2018-05-15T23:35:43.245Z,7.30
2018-05-15T23:38:09.032Z,9.00
2018-05-15T23:40:34.838Z,8.10
2018-05-15T23:43:00.629Z,9.53
2018-05-15T23:45:26.410Z,12.57
2018-05-15T23:47:52.206Z,8.63
2018-05-15T23:50:18.009Z,8.33
2018-05-15T23:52:43.805Z,12.00
2018-05-15T23:55:09.589Z,9.07
2018-05-15T23:57:35.385Z,13.63
